sensor_id;sensor_type;location;lat;lon;timestamp;pressure;altitude;pressure_sealevel;temperature;humidity
62011;BME280;47967;51.756;10.174;2023-02-13T05:01:51;101864.00;;;7.42;84.23
62011;BME280;47967;51.756;10.174;2023-02-13T05:05:54;101867.19;;;7.36;84.20
62011;BME280;47967;51.756;10.174;2023-02-13T05:09:57;101869.63;;;7.39;84.22
62011;BME280;47967;51.756;10.174;2023-02-13T05:13:59;101863.59;;;7.47;84.13
62011;BME280;47967;51.756;10.174;2023-02-13T05:18:03;101866.44;;;7.45;84.04
62011;BME280;47967;51.756;10.174;2023-02-13T05:22:07;101862.31;;;7.41;84.37
62011;BME280;47967;51.756;10.174;2023-02-13T05:26:27;101859.03;;;7.37;84.60
62011;BME280;47967;51.756;10.174;2023-02-13T05:30:30;101860.72;;;7.39;84.75
62011;BME280;47967;51.756;10.174;2023-02-13T05:34:34;101863.28;;;7.40;84.61
62011;BME280;47967;51.756;10.174;2023-02-13T05:38:36;101866.81;;;7.41;84.34
62011;BME280;47967;51.756;10.174;2023-02-13T05:42:39;101865.88;;;7.30;84.50
62011;BME280;47967;51.756;10.174;2023-02-13T05:47:00;101869.16;;;7.22;84.79
62011;BME280;47967;51.756;10.174;2023-02-13T05:51:42;101879.91;;;7.22;85.46
62011;BME280;47967;51.756;10.174;2023-02-13T05:55:46;101890.53;;;7.13;85.85
62011;BME280;47967;51.756;10.174;2023-02-13T05:59:51;101893.03;;;7.04;86.18
62011;BME280;47967;51.756;10.174;2023-02-13T06:03:53;101901.56;;;6.87;86.51
62011;BME280;47967;51.756;10.174;2023-02-13T06:08:00;101903.66;;;6.72;86.82
62011;BME280;47967;51.756;10.174;2023-02-13T06:12:03;101906.47;;;6.70;87.02
62011;BME280;47967;51.756;10.174;2023-02-13T06:16:06;101908.53;;;6.55;87.17
62011;BME280;47967;51.756;10.174;2023-02-13T06:20:09;101912.41;;;6.51;87.58
62011;BME280;47967;51.756;10.174;2023-02-13T06:24:13;101909.84;;;6.38;88.03
62011;BME280;47967;51.756;10.174;2023-02-13T06:28:16;101917.75;;;6.40;88.16
62011;BME280;47967;51.756;10.174;2023-02-13T06:32:18;101916.38;;;6.23;87.96
62011;BME280;47967;51.756;10.174;2023-02-13T06:36:21;101912.69;;;6.13;88.28
62011;BME280;47967;51.756;10.174;2023-02-13T06:40:25;101922.69;;;6.11;87.93
62011;BME280;47967;51.756;10.174;2023-02-13T06:44:27;101923.88;;;6.06;87.72
62011;BME280;47967;51.756;10.174;2023-02-13T06:48:30;101925.09;;;6.02;87.75
62011;BME280;47967;51.756;10.174;2023-02-13T06:52:32;101928.75;;;6.01;87.57
62011;BME280;47967;51.756;10.174;2023-02-13T06:56:37;101932.06;;;6.05;87.90
62011;BME280;47967;51.756;10.174;2023-02-13T07:00:40;101928.09;;;5.98;87.70
62011;BME280;47967;51.756;10.174;2023-02-13T07:04:42;101932.31;;;6.02;88.03
62011;BME280;47967;51.756;10.174;2023-02-13T07:08:45;101943.63;;;6.05;88.17
62011;BME280;47967;51.756;10.174;2023-02-13T07:12:49;101947.72;;;5.98;88.62
62011;BME280;47967;51.756;10.174;2023-02-13T07:17:05;101951.38;;;5.97;88.63
62011;BME280;47967;51.756;10.174;2023-02-13T07:21:08;101946.91;;;6.09;88.84
62011;BME280;47967;51.756;10.174;2023-02-13T07:25:10;101949.88;;;6.17;88.33
62011;BME280;47967;51.756;10.174;2023-02-13T07:29:14;101955.94;;;6.08;88.26
62011;BME280;47967;51.756;10.174;2023-02-13T07:33:17;101953.91;;;6.12;88.33
62011;BME280;47967;51.756;10.174;2023-02-13T07:37:20;101961.06;;;6.11;87.96
62011;BME280;47967;51.756;10.174;2023-02-13T07:41:22;101963.59;;;6.01;87.66
62011;BME280;47967;51.756;10.174;2023-02-13T07:45:28;101962.66;;;6.14;87.45
62011;BME280;47967;51.756;10.174;2023-02-13T07:49:31;101966.03;;;6.04;86.66
62011;BME280;47967;51.756;10.174;2023-02-13T07:53:34;101959.63;;;6.18;86.12
62011;BME280;47967;51.756;10.174;2023-02-13T07:57:36;101962.72;;;6.36;85.28
62011;BME280;47967;51.756;10.174;2023-02-13T08:01:40;101967.69;;;6.30;84.57
62011;BME280;47967;51.756;10.174;2023-02-13T08:05:46;101969.59;;;6.52;83.70
62011;BME280;47967;51.756;10.174;2023-02-13T08:09:48;101978.50;;;6.64;82.48
62011;BME280;47967;51.756;10.174;2023-02-13T08:14:09;101974.84;;;6.65;81.93
62011;BME280;47967;51.756;10.174;2023-02-13T08:18:13;101979.47;;;6.63;82.11
62011;BME280;47967;51.756;10.174;2023-02-13T08:22:15;101977.91;;;6.83;81.64
62011;BME280;47967;51.756;10.174;2023-02-13T08:26:18;101976.06;;;6.83;81.21
62011;BME280;47967;51.756;10.174;2023-02-13T08:30:21;101969.50;;;6.87;81.38
62011;BME280;47967;51.756;10.174;2023-02-13T08:34:25;101975.84;;;6.75;81.13
62011;BME280;47967;51.756;10.174;2023-02-13T08:38:27;101976.06;;;6.83;80.99
62011;BME280;47967;51.756;10.174;2023-02-13T08:42:30;101972.69;;;6.81;80.99
62011;BME280;47967;51.756;10.174;2023-02-13T08:46:32;101973.03;;;6.88;80.51
62011;BME280;47967;51.756;10.174;2023-02-13T08:50:37;101966.09;;;7.08;79.80
62011;BME280;47967;51.756;10.174;2023-02-13T08:54:39;101965.59;;;7.26;79.59
62011;BME280;47967;51.756;10.174;2023-02-13T08:58:42;101969.47;;;7.44;79.07
62011;BME280;47967;51.756;10.174;2023-02-13T09:02:44;101976.41;;;7.47;78.35
62011;BME280;47967;51.756;10.174;2023-02-13T09:06:48;101979.47;;;7.53;78.24
62011;BME280;47967;51.756;10.174;2023-02-13T09:10:54;101976.13;;;7.61;77.69
62011;BME280;47967;51.756;10.174;2023-02-13T09:14:57;101976.41;;;7.58;77.24
62011;BME280;47967;51.756;10.174;2023-02-13T09:19:00;101971.50;;;7.63;77.27
62011;BME280;47967;51.756;10.174;2023-02-13T09:23:03;101977.34;;;7.68;77.42
62011;BME280;47967;51.756;10.174;2023-02-13T09:27:06;101974.56;;;7.59;77.36
62011;BME280;47967;51.756;10.174;2023-02-13T09:31:11;101970.50;;;7.76;77.69
62011;BME280;47967;51.756;10.174;2023-02-13T09:35:16;101970.72;;;7.84;77.30
62011;BME280;47967;51.756;10.174;2023-02-13T09:39:19;101966.63;;;7.90;77.04
62011;BME280;47967;51.756;10.174;2023-02-13T09:43:27;101972.38;;;7.96;76.99
62011;BME280;47967;51.756;10.174;2023-02-13T09:47:33;101967.97;;;7.95;76.95
62011;BME280;47967;51.756;10.174;2023-02-13T09:51:37;101971.03;;;7.91;77.36
62011;BME280;47967;51.756;10.174;2023-02-13T09:55:45;101974.97;;;7.87;77.30
62011;BME280;47967;51.756;10.174;2023-02-13T09:59:57;101979.97;;;7.91;77.20
62011;BME280;47967;51.756;10.174;2023-02-13T10:04:11;101977.53;;;7.88;77.36
62011;BME280;47967;51.756;10.174;2023-02-13T10:08:27;101977.63;;;7.98;77.28
62011;BME280;47967;51.756;10.174;2023-02-13T10:12:52;101981.34;;;8.07;76.87
62011;BME280;47967;51.756;10.174;2023-02-13T10:16:59;101973.63;;;7.92;76.38
62011;BME280;47967;51.756;10.174;2023-02-13T10:21:04;101975.97;;;8.07;77.18
62011;BME280;47967;51.756;10.174;2023-02-13T10:25:14;101980.13;;;8.11;76.81
62011;BME280;47967;51.756;10.174;2023-02-13T10:29:21;101980.34;;;8.19;76.90
62011;BME280;47967;51.756;10.174;2023-02-13T10:33:47;101969.84;;;8.16;76.67
62011;BME280;47967;51.756;10.174;2023-02-13T10:37:54;101966.25;;;8.27;76.15
62011;BME280;47967;51.756;10.174;2023-02-13T10:42:04;101973.72;;;8.23;76.18
62011;BME280;47967;51.756;10.174;2023-02-13T10:46:21;101977.31;;;8.33;75.86
62011;BME280;47967;51.756;10.174;2023-02-13T10:50:33;101980.06;;;8.43;75.24
62011;BME280;47967;51.756;10.174;2023-02-13T10:54:51;101979.97;;;8.45;75.21
62011;BME280;47967;51.756;10.174;2023-02-13T10:59:19;101967.78;;;8.62;75.10
62011;BME280;47967;51.756;10.174;2023-02-13T11:03:28;101959.56;;;8.63;74.40
62011;BME280;47967;51.756;10.174;2023-02-13T11:07:33;101959.28;;;8.67;74.47
62011;BME280;47967;51.756;10.174;2023-02-13T11:11:39;101960.47;;;8.74;73.84
62011;BME280;47967;51.756;10.174;2023-02-13T11:15:55;101959.03;;;8.70;73.85
62011;BME280;47967;51.756;10.174;2023-02-13T11:20:03;101945.78;;;8.78;73.63
62011;BME280;47967;51.756;10.174;2023-02-13T11:24:16;101943.97;;;8.88;72.90
62011;BME280;47967;51.756;10.174;2023-02-13T11:28:20;101936.97;;;8.76;73.18
62011;BME280;47967;51.756;10.174;2023-02-13T11:32:25;101943.91;;;8.78;72.99
62011;BME280;47967;51.756;10.174;2023-02-13T11:36:31;101951.84;;;8.80;73.20
62011;BME280;47967;51.756;10.174;2023-02-13T11:40:34;101950.75;;;8.83;72.64
62011;BME280;47967;51.756;10.174;2023-02-13T11:44:36;101944.56;;;8.92;72.84
62011;BME280;47967;51.756;10.174;2023-02-13T11:48:39;101933.00;;;9.11;72.46
62011;BME280;47967;51.756;10.174;2023-02-13T11:52:53;101936.31;;;8.93;72.49
62011;BME280;47967;51.756;10.174;2023-02-13T11:56:58;101926.94;;;9.19;71.93
62011;BME280;47967;51.756;10.174;2023-02-13T12:01:24;101932.44;;;9.07;72.28
62011;BME280;47967;51.756;10.174;2023-02-13T12:05:28;101925.91;;;9.10;71.74
62011;BME280;47967;51.756;10.174;2023-02-13T12:09:32;101914.81;;;9.03;72.00
62011;BME280;47967;51.756;10.174;2023-02-13T12:13:37;101919.66;;;9.00;72.55
62011;BME280;47967;51.756;10.174;2023-02-13T12:17:41;101914.03;;;9.22;72.24
62011;BME280;47967;51.756;10.174;2023-02-13T12:22:07;101903.69;;;9.27;71.80
62011;BME280;47967;51.756;10.174;2023-02-13T12:26:25;101906.69;;;9.24;72.28
62011;BME280;47967;51.756;10.174;2023-02-13T12:39:54;101889.69;;;9.43;71.59
62011;BME280;47967;51.756;10.174;2023-02-13T12:48:48;101876.50;;;9.40;71.62
62011;BME280;47967;51.756;10.174;2023-02-13T12:53:07;101873.97;;;9.49;71.66
62011;BME280;47967;51.756;10.174;2023-02-13T12:57:23;101864.44;;;9.44;71.37
62011;BME280;47967;51.756;10.174;2023-02-13T13:01:50;101860.19;;;9.52;71.20
62011;BME280;47967;51.756;10.174;2023-02-13T13:06:09;101876.38;;;9.52;71.45
62011;BME280;47967;51.756;10.174;2023-02-13T13:10:25;101868.44;;;9.60;70.87
62011;BME280;47967;51.756;10.174;2023-02-13T13:14:37;101863.03;;;9.70;71.04
62011;BME280;47967;51.756;10.174;2023-02-13T13:18:54;101856.22;;;9.85;70.26
62011;BME280;47967;51.756;10.174;2023-02-13T13:23:04;101855.38;;;9.85;70.43
62011;BME280;47967;51.756;10.174;2023-02-13T13:27:17;101853.97;;;9.61;70.12
62011;BME280;47967;51.756;10.174;2023-02-13T13:31:22;101856.25;;;9.56;70.91
62011;BME280;47967;51.756;10.174;2023-02-13T13:35:28;101851.53;;;9.77;70.15
62011;BME280;47967;51.756;10.174;2023-02-13T13:39:41;101846.03;;;9.79;70.20
62011;BME280;47967;51.756;10.174;2023-02-13T13:43:57;101848.97;;;9.86;70.23
62011;BME280;47967;51.756;10.174;2023-02-13T13:48:39;101843.19;;;9.81;70.34
62011;BME280;47967;51.756;10.174;2023-02-13T13:53:10;101840.19;;;9.84;70.24
62011;BME280;47967;51.756;10.174;2023-02-13T13:57:13;101839.91;;;9.87;70.04
62011;BME280;47967;51.756;10.174;2023-02-13T14:01:26;101841.75;;;9.86;69.41
62011;BME280;47967;51.756;10.174;2023-02-13T14:05:32;101838.59;;;10.01;69.12
62011;BME280;47967;51.756;10.174;2023-02-13T14:09:39;101823.69;;;10.06;69.75
62011;BME280;47967;51.756;10.174;2023-02-13T14:13:42;101821.00;;;9.97;68.95
62011;BME280;47967;51.756;10.174;2023-02-13T14:17:50;101818.56;;;10.13;69.00
62011;BME280;47967;51.756;10.174;2023-02-13T14:21:54;101820.22;;;10.24;68.05
62011;BME280;47967;51.756;10.174;2023-02-13T14:26:30;101828.19;;;10.25;68.19
62011;BME280;47967;51.756;10.174;2023-02-13T14:30:35;101817.69;;;10.13;68.41
62011;BME280;47967;51.756;10.174;2023-02-13T14:34:41;101816.72;;;10.14;68.54
62011;BME280;47967;51.756;10.174;2023-02-13T14:38:54;101804.75;;;10.26;68.02
62011;BME280;47967;51.756;10.174;2023-02-13T14:43:04;101807.59;;;10.24;68.21
62011;BME280;47967;51.756;10.174;2023-02-13T14:47:13;101804.97;;;10.05;68.26
62011;BME280;47967;51.756;10.174;2023-02-13T14:51:24;101800.03;;;9.90;68.73
62011;BME280;47967;51.756;10.174;2023-02-13T14:55:31;101795.75;;;9.98;69.03
62011;BME280;47967;51.756;10.174;2023-02-13T14:59:38;101797.44;;;10.08;68.55
62011;BME280;47967;51.756;10.174;2023-02-13T15:03:45;101796.72;;;10.06;68.80
62011;BME280;47967;51.756;10.174;2023-02-13T15:07:51;101793.31;;;10.04;68.59
62011;BME280;47967;51.756;10.174;2023-02-13T15:11:55;101782.13;;;9.89;68.77
62011;BME280;47967;51.756;10.174;2023-02-13T15:16:01;101782.16;;;9.80;69.49
62011;BME280;47967;51.756;10.174;2023-02-13T15:20:07;101782.72;;;9.83;69.14
62011;BME280;47967;51.756;10.174;2023-02-13T15:24:18;101784.31;;;9.56;69.54
62011;BME280;47967;51.756;10.174;2023-02-13T15:28:24;101787.31;;;9.63;70.07
62011;BME280;47967;51.756;10.174;2023-02-13T15:32:32;101778.38;;;9.63;69.62
62011;BME280;47967;51.756;10.174;2023-02-13T15:36:39;101773.13;;;9.61;69.88
62011;BME280;47967;51.756;10.174;2023-02-13T15:40:43;101781.66;;;9.37;70.27
62011;BME280;47967;51.756;10.174;2023-02-13T15:44:48;101782.06;;;9.32;71.02
62011;BME280;47967;51.756;10.174;2023-02-13T15:48:53;101788.31;;;9.13;71.37
62011;BME280;47967;51.756;10.174;2023-02-13T15:52:56;101784.19;;;8.99;71.56
62011;BME280;47967;51.756;10.174;2023-02-13T15:57:02;101781.47;;;8.99;71.96
62011;BME280;47967;51.756;10.174;2023-02-13T16:01:06;101775.91;;;8.81;72.46
62011;BME280;47967;51.756;10.174;2023-02-13T16:05:13;101774.63;;;8.65;73.33
62011;BME280;47967;51.756;10.174;2023-02-13T16:09:28;101770.97;;;8.36;73.91
62011;BME280;47967;51.756;10.174;2023-02-13T16:13:31;101766.19;;;8.08;74.55
62011;BME280;47967;51.756;10.174;2023-02-13T16:17:36;101763.88;;;7.73;75.53
62011;BME280;47967;51.756;10.174;2023-02-13T16:21:40;101760.25;;;7.41;76.58
62011;BME280;47967;51.756;10.174;2023-02-13T16:25:45;101756.59;;;7.10;77.86
62011;BME280;47967;51.756;10.174;2023-02-13T16:29:54;101759.41;;;6.76;78.25
62011;BME280;47967;51.756;10.174;2023-02-13T16:33:58;101757.84;;;6.50;79.66
62011;BME280;47967;51.756;10.174;2023-02-13T16:38:03;101766.13;;;6.36;81.16
62011;BME280;47967;51.756;10.174;2023-02-13T16:42:12;101774.81;;;6.17;82.00
62011;BME280;47967;51.756;10.174;2023-02-13T16:46:32;101776.00;;;6.01;82.70
62011;BME280;47967;51.756;10.174;2023-02-13T16:50:35;101783.00;;;5.80;83.11
62011;BME280;47967;51.756;10.174;2023-02-13T16:54:46;101776.91;;;5.66;82.95
62011;BME280;47967;51.756;10.174;2023-02-13T16:59:04;101791.69;;;5.48;82.79
62011;BME280;47967;51.756;10.174;2023-02-13T17:03:15;101790.88;;;5.23;83.40
62011;BME280;47967;51.756;10.174;2023-02-13T17:07:20;101795.09;;;5.14;83.64
62011;BME280;47967;51.756;10.174;2023-02-13T17:11:24;101791.00;;;4.97;83.76
62011;BME280;47967;51.756;10.174;2023-02-13T17:15:30;101784.13;;;4.69;83.40
62011;BME280;47967;51.756;10.174;2023-02-13T17:19:33;101785.56;;;4.48;84.23
62011;BME280;47967;51.756;10.174;2023-02-13T17:23:35;101779.06;;;4.40;85.29
62011;BME280;47967;51.756;10.174;2023-02-13T17:27:39;101785.09;;;4.18;84.47
62011;BME280;47967;51.756;10.174;2023-02-13T17:31:43;101786.06;;;4.04;83.14
62011;BME280;47967;51.756;10.174;2023-02-13T17:35:46;101800.16;;;4.06;83.95
62011;BME280;47967;51.756;10.174;2023-02-13T17:39:48;101794.06;;;4.04;84.80
62011;BME280;47967;51.756;10.174;2023-02-13T17:43:52;101807.09;;;3.95;85.49
62011;BME280;47967;51.756;10.174;2023-02-13T17:47:55;101791.94;;;3.96;86.26
62011;BME280;47967;51.756;10.174;2023-02-13T17:51:58;101808.69;;;3.85;86.35
62011;BME280;47967;51.756;10.174;2023-02-13T17:56:00;101803.97;;;3.76;86.61
62011;BME280;47967;51.756;10.174;2023-02-13T18:00:06;101805.69;;;3.64;86.36
62011;BME280;47967;51.756;10.174;2023-02-13T18:04:14;101815.72;;;3.60;86.67
62011;BME280;47967;51.756;10.174;2023-02-13T18:08:17;101807.56;;;3.49;86.66
62011;BME280;47967;51.756;10.174;2023-02-13T18:12:22;101813.53;;;3.40;87.04
62011;BME280;47967;51.756;10.174;2023-02-13T18:16:26;101812.53;;;3.28;86.95
62011;BME280;47967;51.756;10.174;2023-02-13T18:20:28;101814.09;;;3.17;86.70
62011;BME280;47967;51.756;10.174;2023-02-13T18:24:32;101812.38;;;3.16;87.12
62011;BME280;47967;51.756;10.174;2023-02-13T18:28:36;101811.50;;;3.16;86.84
62011;BME280;47967;51.756;10.174;2023-02-13T18:32:40;101820.81;;;3.23;87.08
62011;BME280;47967;51.756;10.174;2023-02-13T18:36:43;101810.13;;;3.10;87.46
62011;BME280;47967;51.756;10.174;2023-02-13T18:40:45;101818.16;;;2.96;87.03
62011;BME280;47967;51.756;10.174;2023-02-13T18:44:48;101815.81;;;2.77;86.87
62011;BME280;47967;51.756;10.174;2023-02-13T18:48:52;101809.56;;;2.63;86.86
62011;BME280;47967;51.756;10.174;2023-02-13T18:52:54;101810.34;;;2.65;86.58
62011;BME280;47967;51.756;10.174;2023-02-13T18:56:57;101813.78;;;2.38;86.32
62011;BME280;47967;51.756;10.174;2023-02-13T19:01:05;101804.84;;;2.39;87.35
62011;BME280;47967;51.756;10.174;2023-02-13T19:05:09;101797.13;;;2.35;87.57
62011;BME280;47967;51.756;10.174;2023-02-13T19:09:11;101797.69;;;2.26;86.91
62011;BME280;47967;51.756;10.174;2023-02-13T19:13:14;101789.25;;;2.19;86.74
62011;BME280;47967;51.756;10.174;2023-02-13T19:17:17;101795.91;;;2.12;86.04
62011;BME280;47967;51.756;10.174;2023-02-13T19:21:22;101797.72;;;1.97;85.65
62011;BME280;47967;51.756;10.174;2023-02-13T19:25:25;101803.75;;;1.84;85.39
62011;BME280;47967;51.756;10.174;2023-02-13T19:29:27;101797.75;;;1.81;85.66
62011;BME280;47967;51.756;10.174;2023-02-13T19:33:30;101799.09;;;1.73;85.58
62011;BME280;47967;51.756;10.174;2023-02-13T19:37:34;101795.47;;;1.74;86.06
62011;BME280;47967;51.756;10.174;2023-02-13T19:41:44;101796.44;;;1.73;86.31
62011;BME280;47967;51.756;10.174;2023-02-13T19:45:47;101796.44;;;1.73;86.18
62011;BME280;47967;51.756;10.174;2023-02-13T19:49:50;101788.72;;;1.69;86.23
62011;BME280;47967;51.756;10.174;2023-02-13T19:53:55;101785.75;;;1.59;86.31
62011;BME280;47967;51.756;10.174;2023-02-13T19:57:58;101793.34;;;1.51;86.43
62011;BME280;47967;51.756;10.174;2023-02-13T20:02:01;101791.63;;;1.50;86.52
62011;BME280;47967;51.756;10.174;2023-02-13T20:06:05;101786.09;;;1.38;86.39
62011;BME280;47967;51.756;10.174;2023-02-13T20:10:10;101784.38;;;1.37;86.56
62011;BME280;47967;51.756;10.174;2023-02-13T20:14:13;101781.97;;;1.33;86.98
62011;BME280;47967;51.756;10.174;2023-02-13T20:18:15;101795.41;;;1.46;87.09
62011;BME280;47967;51.756;10.174;2023-02-13T20:22:19;101793.34;;;1.51;87.08
62011;BME280;47967;51.756;10.174;2023-02-13T20:26:23;101785.00;;;1.57;88.05
62011;BME280;47967;51.756;10.174;2023-02-13T20:30:26;101786.03;;;1.54;88.46
62011;BME280;47967;51.756;10.174;2023-02-13T20:34:29;101781.19;;;1.47;88.44
62011;BME280;47967;51.756;10.174;2023-02-13T20:38:45;101790.25;;;1.42;87.92
62011;BME280;47967;51.756;10.174;2023-02-13T20:42:49;101791.41;;;1.38;87.57
62011;BME280;47967;51.756;10.174;2023-02-13T20:46:51;101797.09;;;1.32;87.24
62011;BME280;47967;51.756;10.174;2023-02-13T20:50:58;101793.16;;;1.23;87.20
62011;BME280;47967;51.756;10.174;2023-02-13T20:55:01;101795.22;;;1.18;87.22
62011;BME280;47967;51.756;10.174;2023-02-13T20:59:05;101787.44;;;1.15;87.63
62011;BME280;47967;51.756;10.174;2023-02-13T21:03:08;101791.47;;;0.90;87.65
62011;BME280;47967;51.756;10.174;2023-02-13T21:07:11;101796.72;;;0.92;88.05
62011;BME280;47967;51.756;10.174;2023-02-13T21:11:14;101797.16;;;1.00;88.37
62011;BME280;47967;51.756;10.174;2023-02-13T21:15:18;101800.13;;;0.94;88.26
62011;BME280;47967;51.756;10.174;2023-02-13T21:19:20;101786.44;;;0.86;88.38
62011;BME280;47967;51.756;10.174;2023-02-13T21:23:23;101780.59;;;0.79;87.88
62011;BME280;47967;51.756;10.174;2023-02-13T21:27:26;101778.88;;;0.62;87.49
62011;BME280;47967;51.756;10.174;2023-02-13T21:31:32;101778.53;;;0.52;87.40
62011;BME280;47967;51.756;10.174;2023-02-13T21:35:36;101790.03;;;0.53;87.58
62011;BME280;47967;51.756;10.174;2023-02-13T21:39:39;101790.03;;;0.53;87.39
62011;BME280;47967;51.756;10.174;2023-02-13T21:43:42;101783.50;;;0.42;87.43
62011;BME280;47967;51.756;10.174;2023-02-13T21:47:48;101784.72;;;0.37;87.61
62011;BME280;47967;51.756;10.174;2023-02-13T21:51:51;101791.91;;;0.35;87.55
62011;BME280;47967;51.756;10.174;2023-02-13T21:55:53;101799.78;;;0.36;87.35
62011;BME280;47967;51.756;10.174;2023-02-13T21:59:56;101799.06;;;0.32;87.47
